Time;durP1;ratioP1;P1;durP2;ratioP2;P2;SDS_P1;SDS_P2;PMS_P1;PMS_P2;Temp;Humidity;BMP_temperature;BMP_pressure;BME280_temperature;BME280_humidity;BME280_pressure;Samples;Min_cycle;Max_cycle;Signal;HPM_P1;HPM_P2
2021/04/29 00:01:57;;;;;;;15.35;9.60;;;22.60;32.10;;;;;;6211381;28;80182;-63
2021/04/29 00:04:57;;;;;;;19.88;9.75;;;22.60;31.90;;;;;;6219117;28;80623;-62
2021/04/29 00:07:58;;;;;;;15.45;9.10;;;22.60;31.90;;;;;;6227112;28;82530;-62
2021/04/29 00:10:58;;;;;;;18.90;8.93;;;22.60;31.70;;;;;;6229329;28;81019;-62
2021/04/29 00:13:59;;;;;;;16.95;9.52;;;22.60;32.10;;;;;;6229740;28;81563;-62
2021/04/29 00:16:59;;;;;;;16.95;9.65;;;22.60;31.90;;;;;;6228915;28;80721;-63
2021/04/29 00:20:00;;;;;;;16.63;9.82;;;22.60;31.90;;;;;;6225447;28;80516;-62
2021/04/29 00:23:00;;;;;;;19.08;9.57;;;22.60;31.70;;;;;;6219562;28;80661;-62
2021/04/29 00:26:01;;;;;;;14.88;9.02;;;22.60;31.80;;;;;;6228595;28;80540;-63
2021/04/29 00:29:01;;;;;;;18.63;10.07;;;22.60;31.70;;;;;;6215619;28;81588;-63
2021/04/29 00:32:02;;;;;;;17.05;9.57;;;22.60;31.60;;;;;;6226791;28;83022;-63
2021/04/29 00:35:02;;;;;;;16.73;9.70;;;22.50;31.40;;;;;;6226723;28;83286;-62
2021/04/29 00:38:03;;;;;;;20.15;8.98;;;22.50;31.40;;;;;;6223922;28;81045;-62
2021/04/29 00:41:03;;;;;;;15.55;9.07;;;22.50;31.40;;;;;;6229207;28;80660;-63
2021/04/29 00:44:04;;;;;;;15.77;9.07;;;22.60;31.50;;;;;;6229551;28;80387;-62
2021/04/29 00:47:04;;;;;;;17.83;9.45;;;22.60;31.40;;;;;;6230786;28;81784;-62
2021/04/29 00:50:05;;;;;;;16.63;10.07;;;22.60;31.40;;;;;;6233608;28;81572;-62
2021/04/29 00:53:05;;;;;;;16.65;9.63;;;22.50;31.40;;;;;;6229210;28;83204;-62
2021/04/29 00:56:06;;;;;;;17.50;9.25;;;22.50;31.40;;;;;;6233008;28;84300;-62
2021/04/29 00:59:06;;;;;;;17.50;8.52;;;22.50;30.90;;;;;;6231026;28;81991;-62
2021/04/29 01:02:07;;;;;;;17.33;10.02;;;22.50;31.40;;;;;;6231489;28;80728;-62
2021/04/29 01:05:07;;;;;;;15.50;9.02;;;22.60;31.20;;;;;;6226744;28;83128;-63
2021/04/29 01:08:08;;;;;;;16.00;9.40;;;22.50;31.30;;;;;;6233040;28;85359;-62
2021/04/29 01:11:08;;;;;;;19.63;9.98;;;22.50;31.40;;;;;;6228012;28;80483;-63
2021/04/29 01:14:11;;;;;;;17.80;9.52;;;22.50;31.10;;;;;;6225351;28;83932;-62
2021/04/29 01:17:11;;;;;;;16.63;9.07;;;22.50;30.90;;;;;;6230117;27;83819;-63
2021/04/29 01:20:12;;;;;;;21.50;9.52;;;22.50;31.10;;;;;;6230705;28;80701;-62
2021/04/29 01:23:12;;;;;;;17.63;9.73;;;22.50;31.40;;;;;;6231554;28;80246;-62
2021/04/29 01:26:13;;;;;;;17.88;9.73;;;22.50;31.00;;;;;;6232900;28;81729;-62
2021/04/29 01:29:13;;;;;;;18.88;10.00;;;22.50;30.90;;;;;;6233170;28;80585;-63
2021/04/29 01:32:14;;;;;;;15.98;8.70;;;22.50;31.10;;;;;;6228868;28;83107;-63
2021/04/29 01:35:14;;;;;;;19.50;9.77;;;22.50;30.90;;;;;;6229214;28;83963;-63
2021/04/29 01:38:14;;;;;;;19.58;10.18;;;22.50;31.00;;;;;;6230677;28;81321;-63
2021/04/29 01:41:15;;;;;;;18.02;9.63;;;22.50;30.90;;;;;;6230424;28;83041;-63
2021/04/29 01:44:16;;;;;;;14.30;9.05;;;22.50;30.70;;;;;;6203920;28;83104;-63
2021/04/29 01:47:16;;;;;;;17.27;9.35;;;22.50;30.70;;;;;;6232049;28;80395;-63
2021/04/29 01:50:16;;;;;;;18.70;10.45;;;22.50;30.60;;;;;;6230176;28;81636;-63
2021/04/29 01:53:17;;;;;;;15.60;9.20;;;22.50;30.70;;;;;;6227827;28;83427;-63
2021/04/29 01:56:17;;;;;;;14.30;8.10;;;22.50;30.60;;;;;;6213464;28;83229;-62
2021/04/29 01:59:18;;;;;;;18.90;9.80;;;22.50;30.60;;;;;;6225894;28;80563;-63
2021/04/29 02:02:18;;;;;;;15.23;8.68;;;22.50;30.80;;;;;;6214029;28;82095;-63
2021/04/29 02:05:19;;;;;;;17.25;9.27;;;22.50;30.60;;;;;;6227467;28;82072;-63
2021/04/29 02:08:19;;;;;;;16.17;9.20;;;22.50;30.50;;;;;;6223277;28;80618;-63
2021/04/29 02:11:20;;;;;;;15.30;8.52;;;22.50;30.30;;;;;;6232127;28;82988;-64
2021/04/29 02:14:21;;;;;;;16.67;9.23;;;22.50;30.30;;;;;;6225988;28;80277;-64
2021/04/29 02:17:21;;;;;;;15.80;8.65;;;22.50;30.40;;;;;;6230385;28;80229;-64
2021/04/29 02:20:24;;;;;;;15.80;9.38;;;22.50;30.60;;;;;;6230054;28;80762;-65
2021/04/29 02:23:25;;;;;;;16.75;9.10;;;22.50;30.10;;;;;;6228483;28;81003;-63
2021/04/29 02:26:26;;;;;;;17.60;8.35;;;22.40;30.20;;;;;;6228765;28;80363;-64
2021/04/29 02:29:26;;;;;;;16.33;8.73;;;22.50;30.30;;;;;;6229437;28;80766;-63
2021/04/29 02:32:27;;;;;;;17.80;9.50;;;22.50;30.30;;;;;;6231054;28;81679;-63
2021/04/29 02:35:27;;;;;;;16.05;9.18;;;22.50;30.20;;;;;;6231466;28;80373;-63
2021/04/29 02:38:28;;;;;;;16.58;8.50;;;22.50;30.50;;;;;;6219002;28;82525;-63
2021/04/29 02:41:28;;;;;;;22.02;9.73;;;22.50;30.30;;;;;;6228480;28;80276;-63
2021/04/29 02:44:29;;;;;;;15.77;9.25;;;22.50;30.10;;;;;;6228045;28;80342;-63
2021/04/29 02:47:29;;;;;;;15.90;8.93;;;22.50;30.10;;;;;;6232474;28;81493;-63
2021/04/29 02:50:30;;;;;;;15.63;8.82;;;22.40;30.30;;;;;;6231803;28;80593;-63
2021/04/29 02:53:30;;;;;;;17.55;9.43;;;22.40;30.30;;;;;;6232394;28;80390;-63
2021/04/29 02:56:31;;;;;;;14.15;8.38;;;22.50;30.10;;;;;;6228901;28;80537;-62
2021/04/29 02:59:31;;;;;;;16.40;9.15;;;22.40;30.20;;;;;;6229331;28;81118;-63
2021/04/29 03:02:32;;;;;;;18.17;8.35;;;22.50;30.20;;;;;;6223178;28;81490;-63
2021/04/29 03:05:33;;;;;;;15.43;8.32;;;22.40;30.20;;;;;;6222175;28;81006;-63
2021/04/29 03:08:33;;;;;;;13.93;8.68;;;22.40;30.10;;;;;;6224462;28;81510;-63
2021/04/29 03:11:34;;;;;;;18.60;8.98;;;22.40;30.30;;;;;;6226723;28;80405;-63
2021/04/29 03:14:34;;;;;;;16.98;9.70;;;22.40;29.90;;;;;;6230911;28;80704;-63
2021/04/29 03:17:35;;;;;;;18.65;9.05;;;22.50;29.60;;;;;;6226500;28;81093;-63
2021/04/29 03:20:35;;;;;;;16.25;9.77;;;22.50;30.10;;;;;;6212554;28;80415;-62
2021/04/29 03:23:36;;;;;;;18.13;9.82;;;22.50;30.20;;;;;;6228281;28;80785;-62
2021/04/29 03:26:36;;;;;;;16.55;9.48;;;22.50;30.10;;;;;;6230455;28;81706;-62
2021/04/29 03:29:37;;;;;;;21.05;10.13;;;22.40;30.10;;;;;;6229640;28;80635;-63
2021/04/29 03:32:37;;;;;;;18.98;9.65;;;22.50;30.10;;;;;;6207270;28;83418;-63
2021/04/29 03:35:38;;;;;;;15.43;8.25;;;22.40;30.20;;;;;;6227499;28;83018;-65
2021/04/29 03:38:39;;;;;;;15.65;9.35;;;22.40;29.90;;;;;;6226673;28;80301;-63
2021/04/29 03:41:39;;;;;;;17.50;10.05;;;22.40;30.20;;;;;;6228087;28;81405;-64
2021/04/29 03:44:40;;;;;;;20.00;8.80;;;22.40;30.20;;;;;;6223125;28;83103;-64
2021/04/29 03:47:41;;;;;;;17.33;9.25;;;22.40;30.00;;;;;;6227377;28;83205;-64
2021/04/29 03:50:41;;;;;;;18.65;9.88;;;22.40;30.00;;;;;;6227605;28;81272;-63
2021/04/29 03:53:42;;;;;;;17.20;9.25;;;22.40;30.30;;;;;;6205678;28;82392;-65
2021/04/29 03:56:42;;;;;;;18.15;9.43;;;22.40;30.10;;;;;;6229493;28;80984;-64
2021/04/29 03:59:43;;;;;;;16.13;9.30;;;22.40;30.30;;;;;;6229341;28;80378;-64
2021/04/29 04:02:44;;;;;;;18.95;9.25;;;22.40;30.00;;;;;;6230040;28;81575;-63
2021/04/29 04:05:44;;;;;;;19.65;9.27;;;22.40;30.10;;;;;;6229584;28;81652;-64
2021/04/29 04:08:45;;;;;;;17.38;9.50;;;22.40;30.30;;;;;;6225875;28;81629;-62
2021/04/29 04:11:45;;;;;;;20.52;10.18;;;22.40;30.30;;;;;;6222564;28;81497;-62
2021/04/29 04:14:46;;;;;;;17.67;9.82;;;22.40;30.50;;;;;;6211388;28;82758;-63
2021/04/29 04:17:46;;;;;;;20.20;10.45;;;22.40;30.00;;;;;;6222836;28;83220;-62
2021/04/29 04:20:47;;;;;;;18.30;9.10;;;22.40;31.00;;;;;;6221256;28;83118;-65
2021/04/29 04:23:47;;;;;;;21.17;9.90;;;22.50;31.40;;;;;;6225954;28;84020;-62
2021/04/29 04:26:48;;;;;;;23.65;9.15;;;22.50;31.00;;;;;;6229759;28;80411;-62
2021/04/29 04:29:48;;;;;;;18.45;9.40;;;22.40;30.80;;;;;;6228458;28;83761;-63
2021/04/29 04:32:49;;;;;;;20.23;9.63;;;22.50;31.40;;;;;;6221498;28;80998;-63
2021/04/29 04:35:49;;;;;;;16.65;9.20;;;22.50;31.70;;;;;;6224062;28;81012;-62
2021/04/29 04:38:50;;;;;;;22.15;9.45;;;22.50;31.20;;;;;;6227089;28;80499;-63
2021/04/29 04:41:51;;;;;;;21.20;9.80;;;22.50;31.40;;;;;;6227766;28;80608;-62
2021/04/29 04:44:51;;;;;;;20.73;10.40;;;22.50;31.40;;;;;;6231016;28;81066;-62
2021/04/29 04:47:52;;;;;;;19.70;9.60;;;22.60;31.50;;;;;;6221581;28;83629;-62
2021/04/29 04:50:52;;;;;;;19.63;9.20;;;22.60;32.20;;;;;;6231608;28;83491;-62
2021/04/29 04:53:53;;;;;;;21.05;9.38;;;22.60;32.10;;;;;;6224894;28;80275;-63
2021/04/29 04:56:54;;;;;;;21.10;10.63;;;22.60;34.10;;;;;;6233921;28;81184;-62
2021/04/29 04:59:54;;;;;;;23.05;10.88;;;22.60;35.00;;;;;;6231834;28;83643;-62
2021/04/29 05:02:55;;;;;;;22.60;10.95;;;22.60;34.30;;;;;;6228137;28;83177;-64
2021/04/29 05:05:55;;;;;;;19.13;10.23;;;22.70;33.80;;;;;;6227558;28;83042;-64
2021/04/29 05:08:56;;;;;;;22.83;10.43;;;22.60;34.40;;;;;;6223536;28;83186;-63
2021/04/29 05:11:56;;;;;;;24.50;11.25;;;22.70;34.30;;;;;;6225732;28;83046;-63
2021/04/29 05:14:57;;;;;;;30.27;11.20;;;22.70;35.00;;;;;;6224030;28;83017;-63
2021/04/29 05:17:57;;;;;;;25.17;11.32;;;22.60;34.50;;;;;;6225749;28;83077;-64
2021/04/29 05:20:58;;;;;;;22.40;12.32;;;22.60;34.80;;;;;;6222238;28;83423;-64
2021/04/29 05:23:58;;;;;;;25.17;11.70;;;22.70;35.00;;;;;;6224763;28;83558;-62
2021/04/29 05:26:59;;;;;;;25.17;11.25;;;22.70;35.80;;;;;;6216220;28;83108;-62
2021/04/29 05:29:59;;;;;;;22.90;11.88;;;22.70;35.30;;;;;;6229266;28;83063;-63
2021/04/29 05:33:00;;;;;;;27.00;12.95;;;22.70;35.20;;;;;;6225863;28;83067;-63
2021/04/29 05:36:00;;;;;;;24.75;12.10;;;22.80;35.30;;;;;;6229190;28;82864;-63
2021/04/29 05:39:01;;;;;;;27.73;11.13;;;22.70;35.50;;;;;;6223349;28;84063;-63
2021/04/29 05:42:01;;;;;;;23.48;11.48;;;22.80;35.50;;;;;;6204278;28;83758;-62
2021/04/29 05:45:02;;;;;;;22.38;12.00;;;22.80;35.20;;;;;;6226332;28;84755;-62
2021/04/29 05:48:02;;;;;;;23.85;11.93;;;22.80;35.00;;;;;;6236139;28;82888;-64
2021/04/29 05:51:03;;;;;;;22.75;11.60;;;22.80;35.00;;;;;;6229274;28;83184;-64
2021/04/29 05:54:03;;;;;;;23.83;12.23;;;22.80;35.00;;;;;;6231811;28;83539;-62
2021/04/29 05:57:04;;;;;;;27.17;12.02;;;22.90;34.90;;;;;;6209510;28;84458;-62
2021/04/29 06:00:04;;;;;;;26.33;11.80;;;22.90;34.60;;;;;;6229854;28;83683;-62
2021/04/29 06:03:14;;;;;;;22.25;11.90;;;22.90;34.30;;;;;;6223931;28;83179;-63
2021/04/29 06:06:15;;;;;;;21.95;11.65;;;22.90;34.10;;;;;;6227863;28;83427;-62
2021/04/29 06:09:16;;;;;;;26.63;11.48;;;22.80;33.60;;;;;;6209848;28;85679;-62
2021/04/29 06:12:16;;;;;;;25.30;11.57;;;22.80;33.60;;;;;;6226574;28;84540;-62
2021/04/29 06:15:17;;;;;;;21.20;10.77;;;22.80;33.60;;;;;;6226437;28;84270;-63
2021/04/29 06:18:17;;;;;;;24.10;11.55;;;22.80;33.60;;;;;;6224704;28;83935;-62
2021/04/29 06:21:18;;;;;;;23.75;11.77;;;22.80;33.50;;;;;;6227841;28;83985;-62
2021/04/29 06:24:18;;;;;;;20.77;11.48;;;22.80;33.50;;;;;;6232708;28;83010;-63
2021/04/29 06:27:19;;;;;;;26.40;12.57;;;22.80;33.80;;;;;;6226071;28;84090;-64
2021/04/29 06:30:19;;;;;;;20.25;11.52;;;22.80;33.50;;;;;;6233837;28;85525;-62
2021/04/29 06:33:20;;;;;;;24.25;10.90;;;22.80;33.30;;;;;;6227890;28;83445;-62
2021/04/29 06:36:20;;;;;;;21.02;11.27;;;22.80;33.40;;;;;;6227253;28;83167;-61
2021/04/29 06:39:21;;;;;;;21.95;11.32;;;22.80;33.40;;;;;;6228238;28;83471;-61
2021/04/29 06:42:22;;;;;;;24.77;11.40;;;22.80;33.40;;;;;;6226039;28;85851;-62
2021/04/29 06:45:22;;;;;;;26.70;12.15;;;22.80;33.50;;;;;;6229128;28;83027;-60
2021/04/29 06:48:23;;;;;;;24.52;11.13;;;22.90;33.50;;;;;;6225916;28;83563;-62
2021/04/29 06:51:23;;;;;;;19.77;9.57;;;22.90;33.80;;;;;;6228196;28;84074;-62
2021/04/29 06:54:24;;;;;;;25.58;12.27;;;22.90;34.10;;;;;;6231791;28;82923;-62
2021/04/29 06:57:24;;;;;;;26.98;11.73;;;22.90;33.90;;;;;;6230712;28;83438;-62
2021/04/29 07:00:25;;;;;;;26.48;12.20;;;22.80;33.80;;;;;;6229028;28;85015;-63
2021/04/29 07:03:25;;;;;;;18.05;11.18;;;22.90;33.70;;;;;;6224004;28;84092;-61
2021/04/29 07:06:26;;;;;;;21.40;11.15;;;22.90;33.90;;;;;;6219650;28;85718;-63
2021/04/29 07:09:27;;;;;;;24.08;11.55;;;22.80;33.70;;;;;;6228915;28;83366;-62
2021/04/29 07:12:27;;;;;;;27.40;11.52;;;22.90;33.80;;;;;;6210182;28;84594;-61
2021/04/29 07:15:28;;;;;;;22.98;10.55;;;22.90;33.70;;;;;;6233351;28;82827;-62
2021/04/29 07:18:28;;;;;;;17.73;10.63;;;22.90;33.70;;;;;;6226543;28;83069;-61
2021/04/29 07:21:29;;;;;;;20.33;10.63;;;22.90;33.70;;;;;;6234084;28;83522;-61
2021/04/29 07:24:29;;;;;;;20.10;10.55;;;22.90;33.70;;;;;;6222777;28;84203;-63
2021/04/29 07:27:30;;;;;;;20.88;10.70;;;22.90;33.90;;;;;;6228579;28;84850;-63
2021/04/29 07:30:31;;;;;;;23.40;10.52;;;22.90;34.40;;;;;;6214278;28;83990;-63
2021/04/29 07:33:32;;;;;;;23.45;11.10;;;22.90;34.10;;;;;;6221527;28;83994;-63
2021/04/29 07:36:33;;;;;;;22.98;12.13;;;23.00;34.10;;;;;;6221070;28;83617;-62
2021/04/29 07:39:33;;;;;;;23.35;11.57;;;23.00;34.70;;;;;;6225417;28;83962;-63
2021/04/29 07:42:34;;;;;;;24.80;11.95;;;23.00;34.40;;;;;;6205939;28;83188;-63
2021/04/29 07:45:35;;;;;;;19.05;10.38;;;23.00;34.20;;;;;;6211735;28;84331;-63
2021/04/29 07:48:35;;;;;;;21.67;11.68;;;22.90;34.30;;;;;;6228265;28;84667;-63
2021/04/29 07:51:36;;;;;;;19.88;10.80;;;22.90;34.50;;;;;;6225746;28;83119;-63
2021/04/29 07:54:36;;;;;;;19.58;10.20;;;22.90;34.60;;;;;;6222687;28;84581;-64
2021/04/29 07:57:37;;;;;;;22.20;10.60;;;23.00;34.70;;;;;;6232610;28;83139;-63
2021/04/29 08:00:37;;;;;;;18.80;10.80;;;22.90;34.70;;;;;;6223529;28;83755;-63
2021/04/29 08:03:38;;;;;;;20.90;10.05;;;22.90;34.80;;;;;;6224540;28;83085;-63
2021/04/29 08:06:38;;;;;;;20.85;10.95;;;22.90;35.00;;;;;;6199580;28;84391;-63
2021/04/29 08:09:39;;;;;;;19.33;10.55;;;23.00;35.30;;;;;;6224409;28;83030;-62
2021/04/29 08:12:39;;;;;;;16.48;9.55;;;22.90;35.00;;;;;;6225366;28;83022;-63
2021/04/29 08:15:40;;;;;;;21.55;11.38;;;23.00;35.30;;;;;;6224977;28;84098;-64
2021/04/29 08:18:40;;;;;;;17.65;10.10;;;23.00;35.30;;;;;;6227835;28;83349;-63
2021/04/29 08:21:41;;;;;;;17.23;10.00;;;23.00;35.30;;;;;;6220001;28;82769;-63
2021/04/29 08:24:41;;;;;;;18.65;9.35;;;23.00;36.00;;;;;;6226085;28;83066;-63
2021/04/29 08:27:42;;;;;;;15.30;9.32;;;23.00;35.20;;;;;;6227334;28;81727;-62
2021/04/29 08:30:42;;;;;;;18.52;9.60;;;23.00;35.20;;;;;;6221016;28;82703;-63
2021/04/29 08:33:43;;;;;;;18.77;9.38;;;23.00;35.40;;;;;;6206546;28;81680;-63
2021/04/29 08:36:43;;;;;;;19.40;10.15;;;23.00;35.70;;;;;;6226645;28;80610;-64
2021/04/29 08:39:44;;;;;;;18.80;10.73;;;23.00;35.90;;;;;;6225067;28;83982;-62
2021/04/29 08:42:44;;;;;;;18.75;9.82;;;23.00;35.00;;;;;;6224563;28;83567;-62
2021/04/29 08:45:45;;;;;;;20.27;8.93;;;23.00;35.10;;;;;;6227704;28;82894;-63
2021/04/29 08:48:45;;;;;;;15.85;10.05;;;23.00;35.80;;;;;;6226383;28;80461;-63
2021/04/29 08:51:46;;;;;;;20.70;9.43;;;23.00;35.30;;;;;;6229427;28;83022;-62
2021/04/29 08:54:47;;;;;;;16.10;9.60;;;23.00;35.10;;;;;;6217358;28;83133;-62
2021/04/29 08:57:48;;;;;;;16.17;9.23;;;23.00;34.60;;;;;;6223079;28;80387;-63
2021/04/29 09:00:48;;;;;;;15.35;9.00;;;23.00;34.80;;;;;;6232083;28;80564;-63
2021/04/29 09:03:49;;;;;;;16.63;8.70;;;23.00;34.80;;;;;;6211977;28;83340;-63
2021/04/29 09:06:50;;;;;;;15.20;8.23;;;23.10;35.60;;;;;;6209798;28;81387;-61
2021/04/29 09:09:50;;;;;;;15.25;8.35;;;23.10;35.20;;;;;;6232984;28;80499;-63
2021/04/29 09:12:51;;;;;;;16.58;8.65;;;23.20;35.00;;;;;;6158670;28;80625;-61
2021/04/29 09:15:51;;;;;;;19.83;8.02;;;23.20;34.30;;;;;;6234379;28;80409;-63
2021/04/29 09:18:52;;;;;;;12.32;7.18;;;23.10;34.00;;;;;;6233122;28;81528;-62
2021/04/29 09:21:52;;;;;;;11.20;7.30;;;23.10;33.70;;;;;;6231587;28;80589;-61
2021/04/29 09:24:53;;;;;;;23.67;7.07;;;23.10;33.40;;;;;;6234852;28;80628;-61
2021/04/29 09:27:53;;;;;;;12.73;7.35;;;23.10;33.30;;;;;;6234136;28;80288;-62
2021/04/29 09:30:54;;;;;;;10.52;6.57;;;23.10;33.10;;;;;;6224551;28;80577;-62
2021/04/29 09:33:55;;;;;;;15.68;6.75;;;23.10;33.10;;;;;;6186805;28;83043;-61
2021/04/29 09:36:55;;;;;;;11.52;6.35;;;23.10;33.20;;;;;;6239059;28;81248;-62
2021/04/29 09:39:55;;;;;;;10.18;7.13;;;23.10;32.90;;;;;;6234651;28;80268;-61
2021/04/29 09:42:56;;;;;;;12.10;5.40;;;23.10;32.80;;;;;;6236427;28;80361;-62
2021/04/29 09:45:56;;;;;;;9.10;5.85;;;23.10;32.90;;;;;;6236588;28;80519;-62
2021/04/29 09:48:57;;;;;;;11.10;5.72;;;23.20;33.40;;;;;;6238386;28;81511;-62
2021/04/29 09:51:58;;;;;;;16.13;6.10;;;23.20;33.30;;;;;;6239416;28;80439;-63
2021/04/29 09:54:59;;;;;;;10.13;5.78;;;23.20;33.50;;;;;;6232758;28;80360;-62
2021/04/29 09:57:59;;;;;;;9.98;5.50;;;23.20;33.70;;;;;;6239575;27;80641;-62
2021/04/29 10:01:00;;;;;;;10.20;6.22;;;23.20;34.10;;;;;;6213792;28;82031;-62
2021/04/29 10:04:00;;;;;;;9.63;5.82;;;23.20;34.40;;;;;;6232639;28;80935;-63
2021/04/29 10:07:01;;;;;;;10.38;4.95;;;23.20;34.80;;;;;;6231097;28;80421;-62
2021/04/29 10:10:01;;;;;;;8.32;5.00;;;23.20;35.40;;;;;;6229309;28;80921;-63
2021/04/29 10:13:02;;;;;;;9.07;4.90;;;23.20;35.50;;;;;;6229904;28;80334;-62
2021/04/29 10:16:02;;;;;;;10.30;5.68;;;23.20;35.90;;;;;;6226906;28;80940;-62
2021/04/29 10:19:03;;;;;;;13.82;6.30;;;23.20;35.90;;;;;;6214318;28;80234;-62
2021/04/29 10:22:03;;;;;;;12.05;5.38;;;23.20;36.00;;;;;;6230893;28;83249;-62
2021/04/29 10:25:04;;;;;;;11.48;5.88;;;23.20;36.60;;;;;;6233637;28;80557;-61
2021/04/29 10:28:05;;;;;;;11.65;5.55;;;23.20;36.80;;;;;;6209207;28;82101;-62
2021/04/29 10:31:05;;;;;;;9.98;5.20;;;23.20;36.90;;;;;;6234634;28;80592;-62
2021/04/29 10:34:06;;;;;;;12.75;5.88;;;23.30;36.90;;;;;;6226672;28;81497;-62
2021/04/29 10:37:06;;;;;;;10.40;5.45;;;23.30;37.10;;;;;;6226895;28;81617;-63
2021/04/29 10:40:09;;;;;;;7.82;5.03;;;23.30;37.30;;;;;;6231850;28;80356;-65
2021/04/29 10:43:10;;;;;;;10.80;5.40;;;23.30;36.90;;;;;;6233518;28;80863;-64
2021/04/29 10:46:10;;;;;;;10.77;4.35;;;23.30;36.90;;;;;;6233737;28;80493;-68
2021/04/29 10:49:14;;;;;;;11.30;5.50;;;23.30;36.60;;;;;;6235118;28;89429;-63
2021/04/29 10:52:14;;;;;;;10.98;5.55;;;23.30;36.70;;;;;;6229616;28;80898;-63
2021/04/29 10:55:15;;;;;;;8.88;4.85;;;23.20;37.20;;;;;;6228155;28;80873;-63
2021/04/29 10:58:15;;;;;;;7.00;4.13;;;23.30;36.30;;;;;;6237045;28;80561;-64
2021/04/29 11:01:17;;;;;;;7.35;3.97;;;23.30;36.30;;;;;;6168245;28;80681;-63
2021/04/29 11:04:18;;;;;;;8.77;4.10;;;23.30;36.30;;;;;;6196286;28;81869;-64
2021/04/29 11:07:18;;;;;;;10.57;4.10;;;23.20;36.30;;;;;;6228565;28;80628;-63
2021/04/29 11:10:19;;;;;;;8.30;3.92;;;23.20;36.20;;;;;;6220339;28;88676;-64
2021/04/29 11:13:19;;;;;;;6.97;3.80;;;23.20;36.30;;;;;;6236326;28;80920;-63
2021/04/29 11:16:20;;;;;;;6.63;3.55;;;23.20;36.20;;;;;;6226240;28;80435;-63
2021/04/29 11:19:20;;;;;;;10.48;3.33;;;23.20;36.10;;;;;;6234468;28;80852;-63
2021/04/29 11:22:21;;;;;;;8.38;3.63;;;23.30;35.90;;;;;;6232108;28;80540;-64
2021/04/29 11:25:21;;;;;;;8.07;3.65;;;23.20;35.90;;;;;;6236913;28;80610;-63
2021/04/29 11:28:22;;;;;;;6.28;2.83;;;23.20;35.90;;;;;;6236021;28;80796;-64
2021/04/29 11:31:23;;;;;;;4.90;3.13;;;23.20;35.90;;;;;;6232282;28;80594;-63
2021/04/29 11:34:24;;;;;;;7.90;3.80;;;23.20;35.70;;;;;;6234620;28;80477;-63
2021/04/29 11:37:24;;;;;;;8.38;3.90;;;23.20;35.70;;;;;;6232070;28;81609;-62
2021/04/29 11:40:25;;;;;;;4.75;2.60;;;23.20;35.90;;;;;;6229461;28;80311;-62
2021/04/29 11:43:26;;;;;;;3.85;2.90;;;23.20;35.90;;;;;;6228858;28;80950;-63
2021/04/29 11:46:26;;;;;;;11.13;4.05;;;23.20;35.80;;;;;;6213537;28;83496;-62
2021/04/29 11:49:27;;;;;;;6.95;3.35;;;23.20;35.80;;;;;;6237490;28;80617;-62
2021/04/29 11:52:27;;;;;;;8.63;3.53;;;23.20;35.80;;;;;;6235620;28;80461;-63
2021/04/29 11:55:28;;;;;;;5.03;2.97;;;23.20;36.10;;;;;;6219057;28;81332;-63
2021/04/29 11:58:28;;;;;;;4.70;3.00;;;23.30;36.00;;;;;;6230956;28;80375;-62
2021/04/29 12:01:29;;;;;;;6.90;2.88;;;23.20;36.00;;;;;;6229424;28;80519;-62
2021/04/29 12:04:29;;;;;;;6.45;3.30;;;23.30;36.10;;;;;;6231348;28;81348;-63
2021/04/29 12:07:30;;;;;;;7.57;3.63;;;23.30;36.10;;;;;;6228335;28;83059;-63
2021/04/29 12:10:30;;;;;;;8.80;3.10;;;23.30;36.20;;;;;;6231090;28;80400;-63
2021/04/29 12:13:31;;;;;;;9.43;3.47;;;23.30;36.10;;;;;;6218221;28;80322;-64
2021/04/29 12:16:33;;;;;;;8.57;3.30;;;23.30;36.10;;;;;;6220988;28;80569;-63
2021/04/29 12:19:33;;;;;;;7.25;3.47;;;23.30;36.30;;;;;;6229778;28;81666;-63
2021/04/29 12:22:34;;;;;;;7.78;3.33;;;23.30;36.40;;;;;;6232765;28;80931;-62
2021/04/29 12:25:34;;;;;;;6.30;3.92;;;23.30;36.30;;;;;;6236939;28;80270;-64
2021/04/29 12:28:35;;;;;;;8.80;3.75;;;23.30;36.30;;;;;;6236773;28;81422;-63
2021/04/29 12:31:35;;;;;;;10.73;3.80;;;23.30;36.30;;;;;;6222691;28;80433;-64
2021/04/29 12:34:36;;;;;;;9.30;3.75;;;23.30;36.40;;;;;;6223623;28;80214;-64
2021/04/29 12:37:36;;;;;;;6.78;3.58;;;23.40;36.60;;;;;;6210306;28;83085;-65
2021/04/29 12:40:37;;;;;;;7.82;3.88;;;23.30;36.70;;;;;;6224399;28;80309;-64
2021/04/29 12:43:38;;;;;;;6.40;3.47;;;23.30;37.00;;;;;;6231393;28;80350;-64
2021/04/29 12:46:38;;;;;;;7.30;4.07;;;23.30;37.20;;;;;;6233855;28;80572;-64
2021/04/29 12:49:39;;;;;;;6.82;3.67;;;23.40;37.00;;;;;;6233258;28;81315;-63
2021/04/29 12:52:39;;;;;;;6.32;3.63;;;23.40;37.20;;;;;;6229373;28;80486;-63
2021/04/29 12:55:40;;;;;;;8.70;3.90;;;23.40;37.10;;;;;;6229607;28;80526;-63
2021/04/29 12:58:40;;;;;;;7.35;3.80;;;23.40;37.20;;;;;;6230300;28;80143;-63
2021/04/29 13:01:41;;;;;;;5.50;3.47;;;23.40;37.20;;;;;;6232997;28;80429;-63
2021/04/29 13:04:41;;;;;;;7.18;3.58;;;23.40;37.80;;;;;;6236139;28;81463;-64
2021/04/29 13:07:45;;;;;;;6.57;3.97;;;23.40;37.90;;;;;;6225664;28;80512;-63
2021/04/29 13:10:45;;;;;;;5.57;3.38;;;23.40;37.30;;;;;;6228316;28;80398;-63
2021/04/29 13:13:46;;;;;;;5.25;3.38;;;23.50;37.80;;;;;;6204182;28;80362;-63
2021/04/29 13:16:46;;;;;;;12.30;4.40;;;23.50;37.70;;;;;;6217908;28;80452;-62
2021/04/29 13:19:47;;;;;;;6.32;3.50;;;23.50;37.80;;;;;;6201224;28;80754;-63
2021/04/29 13:22:47;;;;;;;6.13;4.00;;;23.50;38.00;;;;;;6231588;28;81079;-62
2021/04/29 13:25:48;;;;;;;6.82;4.22;;;23.50;38.00;;;;;;6229246;28;80630;-62
2021/04/29 13:28:48;;;;;;;6.78;4.57;;;23.50;37.10;;;;;;6185657;28;81610;-62
2021/04/29 13:31:49;;;;;;;7.47;4.53;;;23.50;36.40;;;;;;6228031;28;80951;-62
2021/04/29 13:34:49;;;;;;;8.18;4.45;;;23.50;35.70;;;;;;6226895;28;80977;-62
2021/04/29 13:37:51;;;;;;;8.73;4.72;;;23.50;35.80;;;;;;6226989;28;85417;-64
2021/04/29 13:40:52;;;;;;;6.50;4.30;;;23.50;36.10;;;;;;6234448;27;81356;-62
2021/04/29 13:43:52;;;;;;;10.23;4.45;;;23.50;36.70;;;;;;6227818;28;80415;-62
2021/04/29 13:46:53;;;;;;;6.40;4.20;;;23.50;36.20;;;;;;6226471;28;80484;-63
2021/04/29 13:49:53;;;;;;;8.73;4.20;;;23.50;36.30;;;;;;6228971;28;80779;-62
2021/04/29 13:52:54;;;;;;;10.20;4.85;;;23.50;36.10;;;;;;6226903;28;81095;-64
2021/04/29 13:55:55;;;;;;;9.52;4.65;;;23.50;36.30;;;;;;6229704;28;80403;-63
2021/04/29 13:58:55;;;;;;;10.43;5.65;;;23.50;36.20;;;;;;6228281;28;80898;-64
2021/04/29 14:01:56;;;;;;;9.30;5.22;;;23.50;36.50;;;;;;6222703;28;80442;-62
2021/04/29 14:04:56;;;;;;;7.75;4.97;;;23.50;36.40;;;;;;6234023;28;80310;-62
2021/04/29 14:07:57;;;;;;;7.30;5.18;;;23.60;36.60;;;;;;6231948;28;80549;-62
2021/04/29 14:10:57;;;;;;;11.40;4.82;;;23.50;36.10;;;;;;6230957;28;81429;-62
2021/04/29 14:13:58;;;;;;;6.38;4.50;;;23.50;36.20;;;;;;6227594;28;80697;-62
2021/04/29 14:16:58;;;;;;;7.00;4.55;;;23.50;35.80;;;;;;6213593;28;80873;-61
2021/04/29 14:19:59;;;;;;;10.93;5.15;;;23.50;35.50;;;;;;6228656;28;81021;-62
2021/04/29 14:22:59;;;;;;;10.52;5.50;;;23.50;35.20;;;;;;6228755;28;81215;-62
2021/04/29 14:26:00;;;;;;;8.85;4.53;;;23.50;35.30;;;;;;6230881;28;80503;-61
2021/04/29 14:29:00;;;;;;;6.90;5.40;;;23.50;35.80;;;;;;6230513;28;81446;-61
2021/04/29 14:32:01;;;;;;;7.47;5.45;;;23.50;35.10;;;;;;6233179;28;80218;-62
2021/04/29 14:35:01;;;;;;;6.95;5.05;;;23.50;34.80;;;;;;6212999;28;80966;-63
2021/04/29 14:38:02;;;;;;;10.20;5.85;;;23.40;34.50;;;;;;6194657;28;80546;-62
2021/04/29 14:41:02;;;;;;;9.30;5.88;;;23.40;34.80;;;;;;6228823;28;80848;-62
2021/04/29 14:44:03;;;;;;;10.63;5.88;;;23.40;34.90;;;;;;6238107;28;80430;-61
2021/04/29 14:47:05;;;;;;;12.60;6.07;;;23.40;34.90;;;;;;6233835;28;80711;-62
2021/04/29 14:50:06;;;;;;;10.98;5.30;;;23.50;34.70;;;;;;6228528;28;81442;-62
2021/04/29 14:53:08;;;;;;;10.98;5.55;;;23.50;35.20;;;;;;6234170;28;80970;-60
2021/04/29 14:56:09;;;;;;;7.50;5.60;;;23.50;35.30;;;;;;6227208;28;80598;-59
2021/04/29 14:59:09;;;;;;;8.93;5.40;;;23.50;35.20;;;;;;6228815;28;80367;-61
2021/04/29 15:02:10;;;;;;;14.25;5.85;;;23.50;35.10;;;;;;6228568;28;81003;-62
2021/04/29 15:05:11;;;;;;;14.27;6.50;;;23.50;35.40;;;;;;6232796;28;80801;-62
2021/04/29 15:08:12;;;;;;;13.38;5.13;;;23.50;35.80;;;;;;6230255;28;80506;-61
2021/04/29 15:11:12;;;;;;;10.23;5.72;;;23.50;35.40;;;;;;6227103;28;80974;-61
2021/04/29 15:14:13;;;;;;;11.18;6.05;;;23.50;35.50;;;;;;6230284;28;84146;-61
2021/04/29 15:17:13;;;;;;;11.23;5.78;;;23.50;35.40;;;;;;6226489;28;82016;-61
2021/04/29 15:20:14;;;;;;;7.57;5.57;;;23.50;35.70;;;;;;6212608;28;81622;-61
2021/04/29 15:23:14;;;;;;;10.50;5.55;;;23.50;35.70;;;;;;6229570;28;80770;-62
2021/04/29 15:26:15;;;;;;;10.30;6.45;;;23.50;35.60;;;;;;6224157;28;80651;-62